sensor_id;sensor_type;location;lat;lon;timestamp;temperature;humidity
30379;DHT22;17168;49.164;9.060;2023-02-01T00:00:21;8.80;93.70
30379;DHT22;17168;49.164;9.060;2023-02-01T00:02:56;8.80;93.70
30379;DHT22;17168;49.164;9.060;2023-02-01T00:05:28;8.80;93.60
30379;DHT22;17168;49.164;9.060;2023-02-01T00:08:00;8.80;93.50
30379;DHT22;17168;49.164;9.060;2023-02-01T00:10:32;8.80;93.50
30379;DHT22;17168;49.164;9.060;2023-02-01T00:13:04;8.80;93.50
30379;DHT22;17168;49.164;9.060;2023-02-01T00:15:36;8.80;93.40
30379;DHT22;17168;49.164;9.060;2023-02-01T00:18:14;8.70;93.40
30379;DHT22;17168;49.164;9.060;2023-02-01T00:20:46;8.70;93.40
30379;DHT22;17168;49.164;9.060;2023-02-01T00:23:18;8.70;93.40
30379;DHT22;17168;49.164;9.060;2023-02-01T00:25:50;8.80;93.40
30379;DHT22;17168;49.164;9.060;2023-02-01T00:28:22;8.70;92.70
30379;DHT22;17168;49.164;9.060;2023-02-01T00:30:58;8.40;92.60
30379;DHT22;17168;49.164;9.060;2023-02-01T00:33:33;8.20;92.90
30379;DHT22;17168;49.164;9.060;2023-02-01T00:36:08;7.90;93.30
30379;DHT22;17168;49.164;9.060;2023-02-01T00:38:40;7.70;93.80
30379;DHT22;17168;49.164;9.060;2023-02-01T00:41:14;7.50;94.40
30379;DHT22;17168;49.164;9.060;2023-02-01T00:43:47;7.30;95.10
30379;DHT22;17168;49.164;9.060;2023-02-01T00:46:20;7.20;95.90
30379;DHT22;17168;49.164;9.060;2023-02-01T00:48:56;7.10;96.70
30379;DHT22;17168;49.164;9.060;2023-02-01T00:51:29;7.00;97.40
30379;DHT22;17168;49.164;9.060;2023-02-01T00:54:02;6.90;98.20
30379;DHT22;17168;49.164;9.060;2023-02-01T00:56:35;6.80;99.00
30379;DHT22;17168;49.164;9.060;2023-02-01T00:59:10;6.80;99.60
30379;DHT22;17168;49.164;9.060;2023-02-01T01:01:42;6.70;99.90
30379;DHT22;17168;49.164;9.060;2023-02-01T01:04:16;6.70;99.90
30379;DHT22;17168;49.164;9.060;2023-02-01T01:06:48;6.70;99.90
30379;DHT22;17168;49.164;9.060;2023-02-01T01:09:24;6.60;99.90
30379;DHT22;17168;49.164;9.060;2023-02-01T01:11:56;6.60;99.90
30379;DHT22;17168;49.164;9.060;2023-02-01T01:14:28;6.60;99.90
30379;DHT22;17168;49.164;9.060;2023-02-01T01:17:03;6.60;99.90
30379;DHT22;17168;49.164;9.060;2023-02-01T01:19:37;6.60;99.90
30379;DHT22;17168;49.164;9.060;2023-02-01T01:22:09;6.60;99.90
30379;DHT22;17168;49.164;9.060;2023-02-01T01:24:41;6.60;99.90
30379;DHT22;17168;49.164;9.060;2023-02-01T01:27:13;6.50;99.90
30379;DHT22;17168;49.164;9.060;2023-02-01T01:29:45;6.50;99.90
30379;DHT22;17168;49.164;9.060;2023-02-01T01:32:17;6.50;99.90
30379;DHT22;17168;49.164;9.060;2023-02-01T01:34:52;6.50;99.90
30379;DHT22;17168;49.164;9.060;2023-02-01T01:37:24;6.50;99.90
30379;DHT22;17168;49.164;9.060;2023-02-01T01:39:56;6.50;99.90
30379;DHT22;17168;49.164;9.060;2023-02-01T01:42:29;6.50;99.90
30379;DHT22;17168;49.164;9.060;2023-02-01T01:45:20;6.50;99.90
30379;DHT22;17168;49.164;9.060;2023-02-01T01:47:54;6.60;99.90
30379;DHT22;17168;49.164;9.060;2023-02-01T01:50:33;6.60;99.90
30379;DHT22;17168;49.164;9.060;2023-02-01T01:53:09;6.50;99.90
30379;DHT22;17168;49.164;9.060;2023-02-01T01:55:44;6.60;99.90
30379;DHT22;17168;49.164;9.060;2023-02-01T01:58:19;6.50;99.90
30379;DHT22;17168;49.164;9.060;2023-02-01T02:00:52;6.60;99.90
30379;DHT22;17168;49.164;9.060;2023-02-01T02:03:28;6.50;99.90
30379;DHT22;17168;49.164;9.060;2023-02-01T02:06:11;6.50;99.90
30379;DHT22;17168;49.164;9.060;2023-02-01T02:08:45;6.50;99.90
30379;DHT22;17168;49.164;9.060;2023-02-01T02:11:18;6.60;99.90
30379;DHT22;17168;49.164;9.060;2023-02-01T02:13:52;6.60;99.90
30379;DHT22;17168;49.164;9.060;2023-02-01T02:16:52;6.60;99.90
30379;DHT22;17168;49.164;9.060;2023-02-01T02:19:54;6.60;99.90
30379;DHT22;17168;49.164;9.060;2023-02-01T02:26:13;6.60;99.90
30379;DHT22;17168;49.164;9.060;2023-02-01T02:29:21;6.50;99.90
30379;DHT22;17168;49.164;9.060;2023-02-01T02:35:08;6.50;99.90
30379;DHT22;17168;49.164;9.060;2023-02-01T02:37:49;6.50;99.90
30379;DHT22;17168;49.164;9.060;2023-02-01T02:40:31;6.50;99.90
30379;DHT22;17168;49.164;9.060;2023-02-01T02:43:10;6.50;99.90
30379;DHT22;17168;49.164;9.060;2023-02-01T02:46:05;6.50;99.90
30379;DHT22;17168;49.164;9.060;2023-02-01T02:49:02;6.50;99.90
30379;DHT22;17168;49.164;9.060;2023-02-01T02:51:42;6.50;99.90
30379;DHT22;17168;49.164;9.060;2023-02-01T02:54:36;6.60;99.90
30379;DHT22;17168;49.164;9.060;2023-02-01T02:57:21;6.60;99.90
30379;DHT22;17168;49.164;9.060;2023-02-01T03:00:16;6.60;99.90
30379;DHT22;17168;49.164;9.060;2023-02-01T03:03:07;6.60;99.90
30379;DHT22;17168;49.164;9.060;2023-02-01T03:05:57;6.60;99.90
30379;DHT22;17168;49.164;9.060;2023-02-01T03:08:32;6.70;99.90
30379;DHT22;17168;49.164;9.060;2023-02-01T03:11:07;6.60;99.90
30379;DHT22;17168;49.164;9.060;2023-02-01T03:13:43;6.60;99.90
30379;DHT22;17168;49.164;9.060;2023-02-01T03:16:21;6.70;99.90
30379;DHT22;17168;49.164;9.060;2023-02-01T03:19:02;6.70;99.90
30379;DHT22;17168;49.164;9.060;2023-02-01T03:21:39;6.70;99.90
30379;DHT22;17168;49.164;9.060;2023-02-01T03:24:18;6.70;99.90
30379;DHT22;17168;49.164;9.060;2023-02-01T03:26:54;6.70;99.90
30379;DHT22;17168;49.164;9.060;2023-02-01T03:29:31;6.70;99.90
30379;DHT22;17168;49.164;9.060;2023-02-01T03:32:05;6.70;99.90
30379;DHT22;17168;49.164;9.060;2023-02-01T03:34:38;6.70;99.90
30379;DHT22;17168;49.164;9.060;2023-02-01T03:37:12;6.70;99.90
30379;DHT22;17168;49.164;9.060;2023-02-01T03:39:52;6.70;99.90
30379;DHT22;17168;49.164;9.060;2023-02-01T03:42:28;6.80;99.90
30379;DHT22;17168;49.164;9.060;2023-02-01T03:45:07;6.80;99.90
30379;DHT22;17168;49.164;9.060;2023-02-01T03:47:44;6.80;99.90
30379;DHT22;17168;49.164;9.060;2023-02-01T03:50:19;6.80;99.90
30379;DHT22;17168;49.164;9.060;2023-02-01T03:52:59;6.80;99.90
30379;DHT22;17168;49.164;9.060;2023-02-01T03:55:36;6.80;99.90
30379;DHT22;17168;49.164;9.060;2023-02-01T03:58:12;6.80;99.90
30379;DHT22;17168;49.164;9.060;2023-02-01T04:00:46;6.80;99.90
30379;DHT22;17168;49.164;9.060;2023-02-01T04:03:21;6.80;99.90
30379;DHT22;17168;49.164;9.060;2023-02-01T04:05:54;6.80;99.90
30379;DHT22;17168;49.164;9.060;2023-02-01T04:08:26;6.80;99.90
30379;DHT22;17168;49.164;9.060;2023-02-01T04:11:00;6.70;99.90
30379;DHT22;17168;49.164;9.060;2023-02-01T04:13:32;6.70;99.90
30379;DHT22;17168;49.164;9.060;2023-02-01T04:16:05;6.70;99.90
30379;DHT22;17168;49.164;9.060;2023-02-01T04:18:37;6.70;99.90
30379;DHT22;17168;49.164;9.060;2023-02-01T04:21:09;6.70;99.90
30379;DHT22;17168;49.164;9.060;2023-02-01T04:23:41;6.70;99.90
30379;DHT22;17168;49.164;9.060;2023-02-01T04:26:16;6.70;99.90
30379;DHT22;17168;49.164;9.060;2023-02-01T04:28:48;6.70;99.90
30379;DHT22;17168;49.164;9.060;2023-02-01T04:31:20;6.70;99.90
30379;DHT22;17168;49.164;9.060;2023-02-01T04:33:57;6.70;99.90
30379;DHT22;17168;49.164;9.060;2023-02-01T04:36:29;6.70;99.90
30379;DHT22;17168;49.164;9.060;2023-02-01T04:39:01;6.70;99.90
30379;DHT22;17168;49.164;9.060;2023-02-01T04:41:36;6.70;99.90
30379;DHT22;17168;49.164;9.060;2023-02-01T04:44:13;6.60;99.90
30379;DHT22;17168;49.164;9.060;2023-02-01T04:46:46;6.70;99.90
30379;DHT22;17168;49.164;9.060;2023-02-01T04:49:19;6.70;99.90
30379;DHT22;17168;49.164;9.060;2023-02-01T04:51:53;6.70;99.90
30379;DHT22;17168;49.164;9.060;2023-02-01T04:54:25;6.60;99.90
30379;DHT22;17168;49.164;9.060;2023-02-01T04:57:00;6.70;99.90
30379;DHT22;17168;49.164;9.060;2023-02-01T04:59:32;6.60;99.90
30379;DHT22;17168;49.164;9.060;2023-02-01T05:02:04;6.60;99.90
30379;DHT22;17168;49.164;9.060;2023-02-01T05:04:36;6.70;99.90
30379;DHT22;17168;49.164;9.060;2023-02-01T05:07:08;6.60;99.90
30379;DHT22;17168;49.164;9.060;2023-02-01T05:09:40;6.60;99.90
30379;DHT22;17168;49.164;9.060;2023-02-01T05:12:15;6.60;99.90
30379;DHT22;17168;49.164;9.060;2023-02-01T05:15:06;6.60;99.90
30379;DHT22;17168;49.164;9.060;2023-02-01T05:17:38;6.60;99.90
30379;DHT22;17168;49.164;9.060;2023-02-01T05:20:12;6.60;99.90
30379;DHT22;17168;49.164;9.060;2023-02-01T05:22:44;6.60;99.90
30379;DHT22;17168;49.164;9.060;2023-02-01T05:25:16;6.60;99.90
30379;DHT22;17168;49.164;9.060;2023-02-01T05:27:51;6.60;99.90
30379;DHT22;17168;49.164;9.060;2023-02-01T05:30:23;6.60;99.90
30379;DHT22;17168;49.164;9.060;2023-02-01T05:32:55;6.60;99.90
30379;DHT22;17168;49.164;9.060;2023-02-01T05:35:27;6.60;99.90
30379;DHT22;17168;49.164;9.060;2023-02-01T05:37:59;6.60;99.90
30379;DHT22;17168;49.164;9.060;2023-02-01T05:40:31;6.60;99.90
30379;DHT22;17168;49.164;9.060;2023-02-01T05:43:06;6.60;99.90
30379;DHT22;17168;49.164;9.060;2023-02-01T05:45:38;6.60;99.90
30379;DHT22;17168;49.164;9.060;2023-02-01T05:48:10;6.60;99.90
30379;DHT22;17168;49.164;9.060;2023-02-01T05:50:43;6.60;99.90
30379;DHT22;17168;49.164;9.060;2023-02-01T05:53:15;6.60;99.90
30379;DHT22;17168;49.164;9.060;2023-02-01T05:55:47;6.60;99.90
30379;DHT22;17168;49.164;9.060;2023-02-01T05:58:21;6.60;99.90
30379;DHT22;17168;49.164;9.060;2023-02-01T06:00:54;6.60;99.90
30379;DHT22;17168;49.164;9.060;2023-02-01T06:03:26;6.60;99.90
30379;DHT22;17168;49.164;9.060;2023-02-01T06:05:58;6.60;99.90
30379;DHT22;17168;49.164;9.060;2023-02-01T06:08:32;6.60;99.90
30379;DHT22;17168;49.164;9.060;2023-02-01T06:11:04;6.60;99.90
30379;DHT22;17168;49.164;9.060;2023-02-01T06:13:39;6.60;99.90
30379;DHT22;17168;49.164;9.060;2023-02-01T06:16:11;6.60;99.90
30379;DHT22;17168;49.164;9.060;2023-02-01T06:18:43;6.50;99.90
30379;DHT22;17168;49.164;9.060;2023-02-01T06:21:16;6.60;99.90
30379;DHT22;17168;49.164;9.060;2023-02-01T06:23:55;6.50;99.90
30379;DHT22;17168;49.164;9.060;2023-02-01T06:26:29;6.50;99.90
30379;DHT22;17168;49.164;9.060;2023-02-01T06:29:04;6.40;99.90
30379;DHT22;17168;49.164;9.060;2023-02-01T06:31:36;6.40;99.90
30379;DHT22;17168;49.164;9.060;2023-02-01T06:34:08;6.30;99.90
30379;DHT22;17168;49.164;9.060;2023-02-01T06:36:40;6.30;99.90
30379;DHT22;17168;49.164;9.060;2023-02-01T06:39:12;6.20;99.90
30379;DHT22;17168;49.164;9.060;2023-02-01T06:41:48;6.20;99.90
30379;DHT22;17168;49.164;9.060;2023-02-01T06:44:23;6.20;99.90
30379;DHT22;17168;49.164;9.060;2023-02-01T06:46:55;6.20;99.90
30379;DHT22;17168;49.164;9.060;2023-02-01T06:49:27;6.20;99.90
30379;DHT22;17168;49.164;9.060;2023-02-01T06:51:59;6.10;99.90
30379;DHT22;17168;49.164;9.060;2023-02-01T06:54:33;6.20;99.90
30379;DHT22;17168;49.164;9.060;2023-02-01T06:57:06;6.10;99.90
30379;DHT22;17168;49.164;9.060;2023-02-01T06:59:40;6.20;99.90
30379;DHT22;17168;49.164;9.060;2023-02-01T07:02:12;6.20;99.90
30379;DHT22;17168;49.164;9.060;2023-02-01T07:04:44;6.10;99.90
30379;DHT22;17168;49.164;9.060;2023-02-01T07:07:16;6.10;99.90
30379;DHT22;17168;49.164;9.060;2023-02-01T07:09:51;6.10;99.90
30379;DHT22;17168;49.164;9.060;2023-02-01T07:12:23;6.10;99.90
30379;DHT22;17168;49.164;9.060;2023-02-01T07:14:58;6.10;99.90
30379;DHT22;17168;49.164;9.060;2023-02-01T07:17:30;6.10;99.90
30379;DHT22;17168;49.164;9.060;2023-02-01T07:20:02;6.10;99.90
30379;DHT22;17168;49.164;9.060;2023-02-01T07:22:34;6.20;99.90
30379;DHT22;17168;49.164;9.060;2023-02-01T07:25:07;6.20;99.90
30379;DHT22;17168;49.164;9.060;2023-02-01T07:27:39;6.10;99.90
30379;DHT22;17168;49.164;9.060;2023-02-01T07:30:14;6.10;99.90
30379;DHT22;17168;49.164;9.060;2023-02-01T07:32:46;6.20;99.90
30379;DHT22;17168;49.164;9.060;2023-02-01T07:35:18;6.20;99.90
30379;DHT22;17168;49.164;9.060;2023-02-01T07:37:50;6.20;99.90
30379;DHT22;17168;49.164;9.060;2023-02-01T07:40:22;6.20;99.90
30379;DHT22;17168;49.164;9.060;2023-02-01T07:43:00;6.20;99.90
30379;DHT22;17168;49.164;9.060;2023-02-01T07:45:35;6.20;99.90
30379;DHT22;17168;49.164;9.060;2023-02-01T07:48:07;6.20;99.90
30379;DHT22;17168;49.164;9.060;2023-02-01T07:50:39;6.20;99.90
30379;DHT22;17168;49.164;9.060;2023-02-01T07:53:11;6.20;99.90
30379;DHT22;17168;49.164;9.060;2023-02-01T07:55:43;6.20;99.90
30379;DHT22;17168;49.164;9.060;2023-02-01T07:58:15;6.20;99.90
30379;DHT22;17168;49.164;9.060;2023-02-01T08:00:50;6.20;99.90
30379;DHT22;17168;49.164;9.060;2023-02-01T08:03:40;6.20;99.90
30379;DHT22;17168;49.164;9.060;2023-02-01T08:06:12;6.20;99.90
30379;DHT22;17168;49.164;9.060;2023-02-01T08:08:45;6.20;99.90
30379;DHT22;17168;49.164;9.060;2023-02-01T08:11:19;6.20;99.90
30379;DHT22;17168;49.164;9.060;2023-02-01T08:13:52;6.30;99.90
30379;DHT22;17168;49.164;9.060;2023-02-01T08:16:26;6.30;99.90
30379;DHT22;17168;49.164;9.060;2023-02-01T08:18:59;6.20;99.90
30379;DHT22;17168;49.164;9.060;2023-02-01T08:21:31;6.30;99.90
30379;DHT22;17168;49.164;9.060;2023-02-01T08:24:09;6.30;99.90
30379;DHT22;17168;49.164;9.060;2023-02-01T08:26:41;6.30;99.90
30379;DHT22;17168;49.164;9.060;2023-02-01T08:29:14;6.30;99.90
30379;DHT22;17168;49.164;9.060;2023-02-01T08:31:48;6.40;99.90
30379;DHT22;17168;49.164;9.060;2023-02-01T08:34:20;6.40;99.90
30379;DHT22;17168;49.164;9.060;2023-02-01T08:36:58;6.40;99.90
30379;DHT22;17168;49.164;9.060;2023-02-01T08:39:30;6.40;99.90
30379;DHT22;17168;49.164;9.060;2023-02-01T08:42:02;6.40;99.90
30379;DHT22;17168;49.164;9.060;2023-02-01T08:44:53;6.40;99.90
30379;DHT22;17168;49.164;9.060;2023-02-01T08:47:27;6.50;99.90
30379;DHT22;17168;49.164;9.060;2023-02-01T08:50:00;6.50;99.90
30379;DHT22;17168;49.164;9.060;2023-02-01T08:52:36;6.50;99.90
30379;DHT22;17168;49.164;9.060;2023-02-01T08:55:09;6.60;99.90
30379;DHT22;17168;49.164;9.060;2023-02-01T08:57:42;6.60;99.90
30379;DHT22;17168;49.164;9.060;2023-02-01T09:00:16;6.70;99.90
30379;DHT22;17168;49.164;9.060;2023-02-01T09:02:51;6.70;99.90
30379;DHT22;17168;49.164;9.060;2023-02-01T09:05:23;6.70;99.90
30379;DHT22;17168;49.164;9.060;2023-02-01T09:08:06;6.70;99.90
30379;DHT22;17168;49.164;9.060;2023-02-01T09:10:38;6.80;99.90
30379;DHT22;17168;49.164;9.060;2023-02-01T09:13:11;6.80;99.90
30379;DHT22;17168;49.164;9.060;2023-02-01T09:15:43;6.90;99.90
30379;DHT22;17168;49.164;9.060;2023-02-01T09:18:18;6.90;99.90
30379;DHT22;17168;49.164;9.060;2023-02-01T09:20:50;7.00;99.90
30379;DHT22;17168;49.164;9.060;2023-02-01T09:23:22;7.00;99.90
30379;DHT22;17168;49.164;9.060;2023-02-01T09:25:54;7.00;99.90
30379;DHT22;17168;49.164;9.060;2023-02-01T09:28:26;7.10;99.90
30379;DHT22;17168;49.164;9.060;2023-02-01T09:30:59;7.10;99.90
30379;DHT22;17168;49.164;9.060;2023-02-01T09:33:37;7.10;99.90
30379;DHT22;17168;49.164;9.060;2023-02-01T09:36:10;7.10;99.90
30379;DHT22;17168;49.164;9.060;2023-02-01T09:38:42;7.10;99.90
30379;DHT22;17168;49.164;9.060;2023-02-01T09:41:32;7.10;99.90
30379;DHT22;17168;49.164;9.060;2023-02-01T09:44:18;7.10;99.90
30379;DHT22;17168;49.164;9.060;2023-02-01T09:46:56;7.10;99.90
30379;DHT22;17168;49.164;9.060;2023-02-01T09:49:33;7.10;99.90
30379;DHT22;17168;49.164;9.060;2023-02-01T09:52:10;7.10;99.90
30379;DHT22;17168;49.164;9.060;2023-02-01T09:54:47;7.20;99.90
30379;DHT22;17168;49.164;9.060;2023-02-01T09:57:24;7.20;99.90
30379;DHT22;17168;49.164;9.060;2023-02-01T10:00:00;7.20;99.90
30379;DHT22;17168;49.164;9.060;2023-02-01T10:02:36;7.20;99.90
30379;DHT22;17168;49.164;9.060;2023-02-01T10:05:18;7.20;99.90
30379;DHT22;17168;49.164;9.060;2023-02-01T10:08:01;7.20;99.90
30379;DHT22;17168;49.164;9.060;2023-02-01T10:10:40;7.20;99.90
30379;DHT22;17168;49.164;9.060;2023-02-01T10:13:28;7.30;99.90
30379;DHT22;17168;49.164;9.060;2023-02-01T10:16:16;7.30;99.90
30379;DHT22;17168;49.164;9.060;2023-02-01T10:18:59;7.40;99.90
30379;DHT22;17168;49.164;9.060;2023-02-01T10:21:41;7.40;99.90
30379;DHT22;17168;49.164;9.060;2023-02-01T10:24:41;7.40;99.90
30379;DHT22;17168;49.164;9.060;2023-02-01T10:27:17;7.50;99.90
30379;DHT22;17168;49.164;9.060;2023-02-01T10:29:54;7.50;99.90
30379;DHT22;17168;49.164;9.060;2023-02-01T10:32:30;7.50;99.90
30379;DHT22;17168;49.164;9.060;2023-02-01T10:35:10;7.50;99.90
30379;DHT22;17168;49.164;9.060;2023-02-01T10:37:47;7.60;99.90
30379;DHT22;17168;49.164;9.060;2023-02-01T10:40:21;7.70;99.90
30379;DHT22;17168;49.164;9.060;2023-02-01T10:42:58;7.80;99.90
30379;DHT22;17168;49.164;9.060;2023-02-01T10:45:32;7.90;99.90
30379;DHT22;17168;49.164;9.060;2023-02-01T10:48:07;7.90;99.90
30379;DHT22;17168;49.164;9.060;2023-02-01T10:50:46;7.90;99.90
30379;DHT22;17168;49.164;9.060;2023-02-01T10:53:25;7.90;99.90
30379;DHT22;17168;49.164;9.060;2023-02-01T10:56:05;7.90;99.90
30379;DHT22;17168;49.164;9.060;2023-02-01T10:58:44;7.90;99.90
30379;DHT22;17168;49.164;9.060;2023-02-01T11:01:18;7.90;99.90
30379;DHT22;17168;49.164;9.060;2023-02-01T11:03:56;7.90;99.90
30379;DHT22;17168;49.164;9.060;2023-02-01T11:06:29;7.90;99.90
30379;DHT22;17168;49.164;9.060;2023-02-01T11:09:11;7.90;99.90
30379;DHT22;17168;49.164;9.060;2023-02-01T11:11:55;7.90;99.90
30379;DHT22;17168;49.164;9.060;2023-02-01T11:14:34;7.80;99.90
30379;DHT22;17168;49.164;9.060;2023-02-01T11:17:23;7.80;99.90
30379;DHT22;17168;49.164;9.060;2023-02-01T11:19:57;7.80;99.80
30379;DHT22;17168;49.164;9.060;2023-02-01T11:22:30;7.80;99.80
30379;DHT22;17168;49.164;9.060;2023-02-01T11:25:09;7.80;99.30
30379;DHT22;17168;49.164;9.060;2023-02-01T11:27:43;7.80;99.20
30379;DHT22;17168;49.164;9.060;2023-02-01T11:30:31;7.90;99.10
30379;DHT22;17168;49.164;9.060;2023-02-01T11:33:05;7.90;98.90
30379;DHT22;17168;49.164;9.060;2023-02-01T11:35:39;7.80;98.70
30379;DHT22;17168;49.164;9.060;2023-02-01T11:38:20;7.80;98.60
30379;DHT22;17168;49.164;9.060;2023-02-01T11:40:55;7.80;98.60
30379;DHT22;17168;49.164;9.060;2023-02-01T11:43:54;7.80;98.40
30379;DHT22;17168;49.164;9.060;2023-02-01T11:46:29;7.70;98.40
30379;DHT22;17168;49.164;9.060;2023-02-01T11:49:20;7.70;98.20
30379;DHT22;17168;49.164;9.060;2023-02-01T11:52:05;7.70;98.30
30379;DHT22;17168;49.164;9.060;2023-02-01T11:55:01;7.70;98.40
30379;DHT22;17168;49.164;9.060;2023-02-01T11:57:46;7.60;98.40
30379;DHT22;17168;49.164;9.060;2023-02-01T12:00:32;7.60;98.40
30379;DHT22;17168;49.164;9.060;2023-02-01T12:03:29;7.70;98.50
30379;DHT22;17168;49.164;9.060;2023-02-01T12:06:06;7.70;98.20
30379;DHT22;17168;49.164;9.060;2023-02-01T12:09:02;7.70;98.30
30379;DHT22;17168;49.164;9.060;2023-02-01T12:11:44;7.70;98.10
30379;DHT22;17168;49.164;9.060;2023-02-01T12:17:40;7.60;97.70
30379;DHT22;17168;49.164;9.060;2023-02-01T12:20:24;7.60;98.00
30379;DHT22;17168;49.164;9.060;2023-02-01T12:23:13;7.60;98.00
30379;DHT22;17168;49.164;9.060;2023-02-01T12:26:01;7.60;97.90
30379;DHT22;17168;49.164;9.060;2023-02-01T12:28:53;7.60;97.90
30379;DHT22;17168;49.164;9.060;2023-02-01T12:31:45;7.60;97.80
30379;DHT22;17168;49.164;9.060;2023-02-01T12:34:58;7.60;97.60
30379;DHT22;17168;49.164;9.060;2023-02-01T12:37:45;7.60;97.50
30379;DHT22;17168;49.164;9.060;2023-02-01T12:40:42;7.60;97.20
30379;DHT22;17168;49.164;9.060;2023-02-01T12:43:19;7.60;97.10
30379;DHT22;17168;49.164;9.060;2023-02-01T12:45:58;7.60;96.90
30379;DHT22;17168;49.164;9.060;2023-02-01T12:48:36;7.60;96.50
30379;DHT22;17168;49.164;9.060;2023-02-01T12:51:16;7.60;96.50
30379;DHT22;17168;49.164;9.060;2023-02-01T12:53:52;7.70;96.40
30379;DHT22;17168;49.164;9.060;2023-02-01T12:56:29;7.70;96.20
30379;DHT22;17168;49.164;9.060;2023-02-01T12:59:05;7.70;96.10
30379;DHT22;17168;49.164;9.060;2023-02-01T13:01:48;7.70;95.90
30379;DHT22;17168;49.164;9.060;2023-02-01T13:04:28;7.70;95.70
30379;DHT22;17168;49.164;9.060;2023-02-01T13:07:11;7.80;95.20
30379;DHT22;17168;49.164;9.060;2023-02-01T13:09:52;7.80;95.10
30379;DHT22;17168;49.164;9.060;2023-02-01T13:12:29;7.80;94.80
30379;DHT22;17168;49.164;9.060;2023-02-01T13:15:09;7.80;94.80
30379;DHT22;17168;49.164;9.060;2023-02-01T13:17:43;7.80;94.60
30379;DHT22;17168;49.164;9.060;2023-02-01T13:20:22;7.90;94.50
30379;DHT22;17168;49.164;9.060;2023-02-01T13:23:03;7.90;94.40
30379;DHT22;17168;49.164;9.060;2023-02-01T13:25:42;7.90;93.90
30379;DHT22;17168;49.164;9.060;2023-02-01T13:28:19;7.90;93.80
30379;DHT22;17168;49.164;9.060;2023-02-01T13:31:09;8.00;93.80
30379;DHT22;17168;49.164;9.060;2023-02-01T13:34:02;8.00;93.90
30379;DHT22;17168;49.164;9.060;2023-02-01T13:36:59;8.10;93.90
30379;DHT22;17168;49.164;9.060;2023-02-01T13:39:45;8.00;93.80
30379;DHT22;17168;49.164;9.060;2023-02-01T13:42:22;8.00;93.70
30379;DHT22;17168;49.164;9.060;2023-02-01T13:44:58;8.00;93.60
30379;DHT22;17168;49.164;9.060;2023-02-01T13:47:34;8.00;93.60
30379;DHT22;17168;49.164;9.060;2023-02-01T13:50:17;8.00;93.80
30379;DHT22;17168;49.164;9.060;2023-02-01T13:52:54;8.00;93.90
30379;DHT22;17168;49.164;9.060;2023-02-01T13:55:33;8.00;93.80
30379;DHT22;17168;49.164;9.060;2023-02-01T13:58:15;8.00;93.80
30379;DHT22;17168;49.164;9.060;2023-02-01T14:00:50;7.90;93.80
30379;DHT22;17168;49.164;9.060;2023-02-01T14:03:43;7.90;93.80
30379;DHT22;17168;49.164;9.060;2023-02-01T14:06:34;7.90;94.00
30379;DHT22;17168;49.164;9.060;2023-02-01T14:09:19;7.90;94.20
30379;DHT22;17168;49.164;9.060;2023-02-01T14:15:23;7.80;94.50
30379;DHT22;17168;49.164;9.060;2023-02-01T14:17:56;7.80;94.50
30379;DHT22;17168;49.164;9.060;2023-02-01T14:20:39;7.80;94.50
30379;DHT22;17168;49.164;9.060;2023-02-01T14:23:14;7.80;94.60
30379;DHT22;17168;49.164;9.060;2023-02-01T14:26:15;7.80;94.70
30379;DHT22;17168;49.164;9.060;2023-02-01T14:29:22;7.80;94.70
30379;DHT22;17168;49.164;9.060;2023-02-01T14:32:04;7.80;94.40
30379;DHT22;17168;49.164;9.060;2023-02-01T14:34:39;7.80;94.10
30379;DHT22;17168;49.164;9.060;2023-02-01T14:37:25;7.80;94.00
30379;DHT22;17168;49.164;9.060;2023-02-01T14:40:00;7.80;93.80
30379;DHT22;17168;49.164;9.060;2023-02-01T14:42:38;7.80;93.70
30379;DHT22;17168;49.164;9.060;2023-02-01T14:48:45;7.80;93.70
30379;DHT22;17168;49.164;9.060;2023-02-01T14:51:19;7.80;93.70
30379;DHT22;17168;49.164;9.060;2023-02-01T14:53:52;7.80;93.80
30379;DHT22;17168;49.164;9.060;2023-02-01T14:56:26;7.80;93.70
30379;DHT22;17168;49.164;9.060;2023-02-01T14:59:06;7.80;93.60
30379;DHT22;17168;49.164;9.060;2023-02-01T15:01:49;7.80;93.50
30379;DHT22;17168;49.164;9.060;2023-02-01T15:04:26;7.80;93.50
30379;DHT22;17168;49.164;9.060;2023-02-01T15:07:05;7.70;93.50
30379;DHT22;17168;49.164;9.060;2023-02-01T15:09:42;7.70;93.40
30379;DHT22;17168;49.164;9.060;2023-02-01T15:12:17;7.70;93.30
30379;DHT22;17168;49.164;9.060;2023-02-01T15:15:09;7.80;93.40
30379;DHT22;17168;49.164;9.060;2023-02-01T15:17:41;7.70;93.10
30379;DHT22;17168;49.164;9.060;2023-02-01T15:20:18;7.70;92.80
30379;DHT22;17168;49.164;9.060;2023-02-01T15:22:54;7.70;92.80
30379;DHT22;17168;49.164;9.060;2023-02-01T15:25:28;7.80;92.70
30379;DHT22;17168;49.164;9.060;2023-02-01T15:28:01;7.70;92.60
30379;DHT22;17168;49.164;9.060;2023-02-01T15:30:34;7.70;92.60
30379;DHT22;17168;49.164;9.060;2023-02-01T15:33:15;7.70;92.60
30379;DHT22;17168;49.164;9.060;2023-02-01T15:35:51;7.70;92.60
30379;DHT22;17168;49.164;9.060;2023-02-01T15:38:35;7.70;92.60
30379;DHT22;17168;49.164;9.060;2023-02-01T15:41:11;7.70;92.50
30379;DHT22;17168;49.164;9.060;2023-02-01T15:44:01;7.70;92.50
30379;DHT22;17168;49.164;9.060;2023-02-01T15:46:38;7.70;92.50
30379;DHT22;17168;49.164;9.060;2023-02-01T15:49:19;7.70;92.50
30379;DHT22;17168;49.164;9.060;2023-02-01T15:51:56;7.70;92.50
30379;DHT22;17168;49.164;9.060;2023-02-01T15:54:31;7.70;92.40
30379;DHT22;17168;49.164;9.060;2023-02-01T15:57:04;7.70;92.20
30379;DHT22;17168;49.164;9.060;2023-02-01T15:59:42;7.70;92.20
30379;DHT22;17168;49.164;9.060;2023-02-01T16:02:26;7.70;92.20
30379;DHT22;17168;49.164;9.060;2023-02-01T16:04:59;7.70;92.10
30379;DHT22;17168;49.164;9.060;2023-02-01T16:07:34;7.70;92.10
30379;DHT22;17168;49.164;9.060;2023-02-01T16:10:23;7.70;92.00
30379;DHT22;17168;49.164;9.060;2023-02-01T16:12:56;7.80;92.00
30379;DHT22;17168;49.164;9.060;2023-02-01T16:15:31;7.70;92.00
30379;DHT22;17168;49.164;9.060;2023-02-01T16:18:04;7.70;91.80
30379;DHT22;17168;49.164;9.060;2023-02-01T16:20:37;7.70;91.80
30379;DHT22;17168;49.164;9.060;2023-02-01T16:23:11;7.70;91.80
30379;DHT22;17168;49.164;9.060;2023-02-01T16:25:44;7.70;91.80
30379;DHT22;17168;49.164;9.060;2023-02-01T16:28:16;7.60;91.80
30379;DHT22;17168;49.164;9.060;2023-02-01T16:30:48;7.60;91.80
30379;DHT22;17168;49.164;9.060;2023-02-01T16:33:21;7.60;91.80
30379;DHT22;17168;49.164;9.060;2023-02-01T16:35:56;7.60;91.90
30379;DHT22;17168;49.164;9.060;2023-02-01T16:38:34;7.60;91.90
30379;DHT22;17168;49.164;9.060;2023-02-01T16:41:06;7.60;92.00
30379;DHT22;17168;49.164;9.060;2023-02-01T16:43:40;7.60;92.00
30379;DHT22;17168;49.164;9.060;2023-02-01T16:46:19;7.60;92.10
30379;DHT22;17168;49.164;9.060;2023-02-01T16:48:57;7.60;92.10
30379;DHT22;17168;49.164;9.060;2023-02-01T16:51:31;7.60;92.00
30379;DHT22;17168;49.164;9.060;2023-02-01T16:54:13;7.60;92.00
30379;DHT22;17168;49.164;9.060;2023-02-01T16:56:45;7.60;91.90
30379;DHT22;17168;49.164;9.060;2023-02-01T16:59:18;7.60;91.90
30379;DHT22;17168;49.164;9.060;2023-02-01T17:01:49;7.60;91.90
30379;DHT22;17168;49.164;9.060;2023-02-01T17:04:21;7.60;91.90